sensor_id;sensor_type;location;lat;lon;timestamp;pressure;altitude;pressure_sealevel;temperature;humidity
13800;BME280;6971;50.028;9.258;2023-02-14T00:03:42;101349.25;;;-2.26;100.00
13800;BME280;6971;50.028;9.258;2023-02-14T00:08:42;101358.63;;;-2.30;100.00
13800;BME280;6971;50.028;9.258;2023-02-14T00:13:43;101353.25;;;-2.36;100.00
13800;BME280;6971;50.028;9.258;2023-02-14T00:19:04;101355.78;;;-2.38;100.00
13800;BME280;6971;50.028;9.258;2023-02-14T00:24:09;101355.88;;;-2.34;100.00
13800;BME280;6971;50.028;9.258;2023-02-14T00:29:12;101351.56;;;-2.36;100.00
13800;BME280;6971;50.028;9.258;2023-02-14T00:34:14;101356.88;;;-2.29;100.00
13800;BME280;6971;50.028;9.258;2023-02-14T00:39:15;101348.88;;;-2.39;100.00
13800;BME280;6971;50.028;9.258;2023-02-14T00:44:16;101360.94;;;-2.38;100.00
13800;BME280;6971;50.028;9.258;2023-02-14T00:49:16;101359.03;;;-2.45;100.00
13800;BME280;6971;50.028;9.258;2023-02-14T00:54:17;101357.34;;;-2.43;100.00
13800;BME280;6971;50.028;9.258;2023-02-14T00:59:17;101364.25;;;-2.43;100.00
13800;BME280;6971;50.028;9.258;2023-02-14T01:04:17;101357.22;;;-2.47;100.00
13800;BME280;6971;50.028;9.258;2023-02-14T01:09:18;101370.25;;;-2.43;100.00
13800;BME280;6971;50.028;9.258;2023-02-14T01:14:18;101360.88;;;-2.41;100.00
13800;BME280;6971;50.028;9.258;2023-02-14T01:19:19;101360.09;;;-2.38;100.00
13800;BME280;6971;50.028;9.258;2023-02-14T01:24:19;101361.38;;;-2.53;100.00
13800;BME280;6971;50.028;9.258;2023-02-14T01:29:19;101355.44;;;-2.49;100.00
13800;BME280;6971;50.028;9.258;2023-02-14T01:34:20;101350.94;;;-2.56;100.00
13800;BME280;6971;50.028;9.258;2023-02-14T01:39:20;101347.53;;;-2.55;100.00
13800;BME280;6971;50.028;9.258;2023-02-14T01:49:34;101342.97;;;-2.64;100.00
13800;BME280;6971;50.028;9.258;2023-02-14T01:54:42;101329.34;;;-2.58;100.00
13800;BME280;6971;50.028;9.258;2023-02-14T01:59:49;101333.50;;;-2.63;100.00
13800;BME280;6971;50.028;9.258;2023-02-14T02:04:54;101328.25;;;-2.66;100.00
13800;BME280;6971;50.028;9.258;2023-02-14T02:09:59;101329.78;;;-2.71;100.00
13800;BME280;6971;50.028;9.258;2023-02-14T02:15:01;101336.53;;;-2.77;100.00
13800;BME280;6971;50.028;9.258;2023-02-14T02:20:27;101321.19;;;-2.72;100.00
13800;BME280;6971;50.028;9.258;2023-02-14T02:31:09;101317.25;;;-2.88;100.00
13800;BME280;6971;50.028;9.258;2023-02-14T02:41:44;101323.09;;;-2.94;100.00
13800;BME280;6971;50.028;9.258;2023-02-14T02:58:02;101323.09;;;-2.94;100.00
13800;BME280;6971;50.028;9.258;2023-02-14T03:03:19;101311.03;;;-2.95;100.00
13800;BME280;6971;50.028;9.258;2023-02-14T03:08:39;101313.56;;;-2.96;100.00
13800;BME280;6971;50.028;9.258;2023-02-14T03:13:58;101305.09;;;-2.92;100.00
13800;BME280;6971;50.028;9.258;2023-02-14T03:19:20;101307.41;;;-3.00;100.00
13800;BME280;6971;50.028;9.258;2023-02-14T03:24:45;101310.97;;;-2.96;100.00
13800;BME280;6971;50.028;9.258;2023-02-14T03:35:42;101324.38;;;-3.08;100.00
13800;BME280;6971;50.028;9.258;2023-02-14T03:41:06;101314.84;;;-3.09;100.00
13800;BME280;6971;50.028;9.258;2023-02-14T03:46:38;101323.66;;;-3.03;100.00
13800;BME280;6971;50.028;9.258;2023-02-14T03:51:40;101319.75;;;-2.91;100.00
13800;BME280;6971;50.028;9.258;2023-02-14T03:56:55;101330.50;;;-2.19;100.00
13800;BME280;6971;50.028;9.258;2023-02-14T04:02:03;101325.41;;;-2.17;100.00
13800;BME280;6971;50.028;9.258;2023-02-14T04:07:13;101332.78;;;-2.30;100.00
13800;BME280;6971;50.028;9.258;2023-02-14T04:12:15;101327.50;;;-1.72;100.00
13800;BME280;6971;50.028;9.258;2023-02-14T04:17:16;101331.56;;;-1.14;100.00
13800;BME280;6971;50.028;9.258;2023-02-14T04:22:35;101336.34;;;-0.94;100.00
13800;BME280;6971;50.028;9.258;2023-02-14T04:27:35;101342.09;;;-0.71;100.00
13800;BME280;6971;50.028;9.258;2023-02-14T04:32:35;101345.88;;;-0.56;100.00
13800;BME280;6971;50.028;9.258;2023-02-14T04:37:36;101354.72;;;-0.45;100.00
13800;BME280;6971;50.028;9.258;2023-02-14T04:42:37;101354.81;;;-0.42;100.00
13800;BME280;6971;50.028;9.258;2023-02-14T04:47:37;101350.53;;;-0.41;100.00
13800;BME280;6971;50.028;9.258;2023-02-14T04:52:37;101360.94;;;-0.38;100.00
13800;BME280;6971;50.028;9.258;2023-02-14T04:57:38;101353.19;;;-0.36;100.00
13800;BME280;6971;50.028;9.258;2023-02-14T05:02:38;101338.63;;;-0.31;100.00
13800;BME280;6971;50.028;9.258;2023-02-14T05:07:38;101336.94;;;-0.29;100.00
13800;BME280;6971;50.028;9.258;2023-02-14T05:12:39;101329.25;;;-0.26;100.00
13800;BME280;6971;50.028;9.258;2023-02-14T05:17:39;101330.78;;;-0.34;100.00
13800;BME280;6971;50.028;9.258;2023-02-14T05:22:39;101329.06;;;-0.35;100.00
13800;BME280;6971;50.028;9.258;2023-02-14T05:27:40;101335.97;;;-0.34;100.00
13800;BME280;6971;50.028;9.258;2023-02-14T05:32:40;101332.53;;;-0.33;100.00
13800;BME280;6971;50.028;9.258;2023-02-14T05:37:40;101340.38;;;-0.30;100.00
13800;BME280;6971;50.028;9.258;2023-02-14T05:42:41;101335.13;;;-0.33;100.00
13800;BME280;6971;50.028;9.258;2023-02-14T05:47:42;101336.13;;;-0.27;100.00
13800;BME280;6971;50.028;9.258;2023-02-14T05:52:43;101333.38;;;-0.34;100.00
13800;BME280;6971;50.028;9.258;2023-02-14T05:57:43;101333.50;;;-0.28;100.00
13800;BME280;6971;50.028;9.258;2023-02-14T06:02:43;101337.91;;;-0.24;100.00
13800;BME280;6971;50.028;9.258;2023-02-14T06:07:44;101344.91;;;-0.20;100.00
13800;BME280;6971;50.028;9.258;2023-02-14T06:12:51;101340.44;;;-0.27;100.00
13800;BME280;6971;50.028;9.258;2023-02-14T06:17:54;101339.63;;;-0.26;100.00
13800;BME280;6971;50.028;9.258;2023-02-14T06:22:54;101343.09;;;-0.24;100.00
13800;BME280;6971;50.028;9.258;2023-02-14T06:27:56;101350.09;;;-0.20;100.00
13800;BME280;6971;50.028;9.258;2023-02-14T06:32:56;101350.94;;;-0.21;100.00
13800;BME280;6971;50.028;9.258;2023-02-14T06:37:57;101351.03;;;-0.16;100.00
13800;BME280;6971;50.028;9.258;2023-02-14T06:42:57;101359.00;;;-0.08;100.00
13800;BME280;6971;50.028;9.258;2023-02-14T06:47:57;101358.19;;;-0.06;100.00
13800;BME280;6971;50.028;9.258;2023-02-14T06:53:02;101351.00;;;-0.19;100.00
13800;BME280;6971;50.028;9.258;2023-02-14T06:58:03;101351.19;;;-0.10;100.00
13800;BME280;6971;50.028;9.258;2023-02-14T07:03:03;101357.19;;;-0.12;100.00
13800;BME280;6971;50.028;9.258;2023-02-14T07:08:04;101353.06;;;-0.01;100.00
13800;BME280;6971;50.028;9.258;2023-02-14T07:13:06;101351.22;;;-0.08;100.00
13800;BME280;6971;50.028;9.258;2023-02-14T07:18:06;101353.91;;;-0.02;100.00
13800;BME280;6971;50.028;9.258;2023-02-14T07:23:10;101343.19;;;-0.21;100.00
13800;BME280;6971;50.028;9.258;2023-02-14T07:28:11;101350.44;;;-0.04;100.00
13800;BME280;6971;50.028;9.258;2023-02-14T07:33:11;101347.06;;;0.00;100.00
13800;BME280;6971;50.028;9.258;2023-02-14T07:38:12;101347.19;;;0.06;100.00
13800;BME280;6971;50.028;9.258;2023-02-14T07:43:12;101348.22;;;0.15;100.00
13800;BME280;6971;50.028;9.258;2023-02-14T07:48:12;101352.72;;;0.25;100.00
13800;BME280;6971;50.028;9.258;2023-02-14T07:53:13;101352.47;;;0.12;100.00
13800;BME280;6971;50.028;9.258;2023-02-14T07:58:13;101359.63;;;0.23;100.00
13800;BME280;6971;50.028;9.258;2023-02-14T08:03:14;101354.59;;;0.32;100.00
13800;BME280;6971;50.028;9.258;2023-02-14T08:08:14;101364.16;;;0.35;100.00
13800;BME280;6971;50.028;9.258;2023-02-14T08:13:15;101368.66;;;0.45;100.00
13800;BME280;6971;50.028;9.258;2023-02-14T08:18:16;101357.41;;;0.43;100.00
13800;BME280;6971;50.028;9.258;2023-02-14T08:23:18;101358.22;;;0.41;100.00
13800;BME280;6971;50.028;9.258;2023-02-14T08:28:19;101347.94;;;0.47;100.00
13800;BME280;6971;50.028;9.258;2023-02-14T08:33:20;101349.75;;;0.51;100.00
13800;BME280;6971;50.028;9.258;2023-02-14T08:38:21;101355.88;;;0.55;100.00
13800;BME280;6971;50.028;9.258;2023-02-14T08:43:21;101347.56;;;0.74;100.00
13800;BME280;6971;50.028;9.258;2023-02-14T08:48:22;101344.88;;;0.70;100.00
13800;BME280;6971;50.028;9.258;2023-02-14T08:53:24;101344.19;;;0.78;100.00
13800;BME280;6971;50.028;9.258;2023-02-14T08:58:24;101334.78;;;0.85;100.00
13800;BME280;6971;50.028;9.258;2023-02-14T09:03:24;101343.47;;;0.87;100.00
13800;BME280;6971;50.028;9.258;2023-02-14T09:08:25;101341.78;;;0.89;100.00
13800;BME280;6971;50.028;9.258;2023-02-14T09:13:25;101345.63;;;1.13;100.00
13800;BME280;6971;50.028;9.258;2023-02-14T09:18:26;101340.22;;;1.01;100.00
13800;BME280;6971;50.028;9.258;2023-02-14T09:23:26;101337.06;;;1.21;100.00
13800;BME280;6971;50.028;9.258;2023-02-14T09:28:27;101337.41;;;1.42;100.00
13800;BME280;6971;50.028;9.258;2023-02-14T09:33:27;101340.19;;;0.98;100.00
13800;BME280;6971;50.028;9.258;2023-02-14T09:38:28;101342.69;;;1.50;100.00
13800;BME280;6971;50.028;9.258;2023-02-14T09:48:45;101335.84;;;1.55;100.00
13800;BME280;6971;50.028;9.258;2023-02-14T09:53:51;101334.06;;;1.53;100.00
13800;BME280;6971;50.028;9.258;2023-02-14T09:58:59;101330.00;;;1.75;100.00
13800;BME280;6971;50.028;9.258;2023-02-14T10:10:02;101327.69;;;1.95;100.00
13800;BME280;6971;50.028;9.258;2023-02-14T10:15:13;101324.19;;;1.93;100.00
13800;BME280;6971;50.028;9.258;2023-02-14T10:20:41;101326.97;;;2.07;100.00
13800;BME280;6971;50.028;9.258;2023-02-14T10:25:56;101334.81;;;2.12;100.00
13800;BME280;6971;50.028;9.258;2023-02-14T10:31:20;101335.59;;;2.05;100.00
13800;BME280;6971;50.028;9.258;2023-02-14T10:42:03;101323.44;;;2.02;100.00
13800;BME280;6971;50.028;9.258;2023-02-14T10:53:06;101313.53;;;2.51;100.00
13800;BME280;6971;50.028;9.258;2023-02-14T10:58:16;101310.81;;;2.40;100.00
13800;BME280;6971;50.028;9.258;2023-02-14T11:03:18;101304.75;;;2.38;100.00
13800;BME280;6971;50.028;9.258;2023-02-14T11:13:36;101299.72;;;2.59;100.00
13800;BME280;6971;50.028;9.258;2023-02-14T11:18:39;101296.34;;;2.70;100.00
13800;BME280;6971;50.028;9.258;2023-02-14T11:23:43;101284.28;;;2.80;100.00
13800;BME280;6971;50.028;9.258;2023-02-14T11:28:55;101286.97;;;2.91;100.00
13800;BME280;6971;50.028;9.258;2023-02-14T11:33:57;101286.97;;;2.89;100.00
13800;BME280;6971;50.028;9.258;2023-02-14T11:39:09;101274.97;;;3.13;100.00
13800;BME280;6971;50.028;9.258;2023-02-14T11:44:22;101274.53;;;2.57;100.00
13800;BME280;6971;50.028;9.258;2023-02-14T11:54:38;101261.97;;;3.18;100.00
13800;BME280;6971;50.028;9.258;2023-02-14T11:59:43;101251.56;;;3.22;100.00
13800;BME280;6971;50.028;9.258;2023-02-14T12:04:45;101242.00;;;3.21;100.00
13800;BME280;6971;50.028;9.258;2023-02-14T12:09:47;101235.16;;;3.44;100.00
13800;BME280;6971;50.028;9.258;2023-02-14T12:15:26;101222.88;;;3.16;100.00
13800;BME280;6971;50.028;9.258;2023-02-14T12:20:48;101224.69;;;3.36;100.00
13800;BME280;6971;50.028;9.258;2023-02-14T12:26:08;101213.38;;;3.31;100.00
13800;BME280;6971;50.028;9.258;2023-02-14T12:31:12;101214.41;;;3.76;100.00
13800;BME280;6971;50.028;9.258;2023-02-14T12:36:42;101217.75;;;3.35;100.00
13800;BME280;6971;50.028;9.258;2023-02-14T12:41:51;101205.69;;;3.56;100.00
13800;BME280;6971;50.028;9.258;2023-02-14T13:18:32;101173.63;;;4.36;95.69
13800;BME280;6971;50.028;9.258;2023-02-14T13:23:45;101177.97;;;4.23;95.62
13800;BME280;6971;50.028;9.258;2023-02-14T13:28:55;101167.50;;;4.51;95.60
13800;BME280;6971;50.028;9.258;2023-02-14T13:34:00;101161.38;;;4.85;93.35
13800;BME280;6971;50.028;9.258;2023-02-14T13:39:03;101159.63;;;4.84;92.38
13800;BME280;6971;50.028;9.258;2023-02-14T13:44:03;101143.09;;;4.80;92.41
13800;BME280;6971;50.028;9.258;2023-02-14T13:54:25;101137.06;;;4.50;93.45
13800;BME280;6971;50.028;9.258;2023-02-14T13:59:33;101137.09;;;4.42;94.50
13800;BME280;6971;50.028;9.258;2023-02-14T14:04:35;101128.38;;;4.47;93.64
13800;BME280;6971;50.028;9.258;2023-02-14T14:14:43;101131.00;;;4.14;95.38
13800;BME280;6971;50.028;9.258;2023-02-14T14:19:45;101137.09;;;4.08;97.10
13800;BME280;6971;50.028;9.258;2023-02-14T14:24:57;101134.47;;;4.19;96.80
13800;BME280;6971;50.028;9.258;2023-02-14T14:30:23;101126.59;;;3.64;99.60
13800;BME280;6971;50.028;9.258;2023-02-14T14:35:24;101126.63;;;3.85;99.31
13800;BME280;6971;50.028;9.258;2023-02-14T14:40:37;101122.25;;;3.65;100.00
13800;BME280;6971;50.028;9.258;2023-02-14T14:45:38;101131.84;;;3.71;100.00
13800;BME280;6971;50.028;9.258;2023-02-14T14:50:43;101119.63;;;3.51;100.00
13800;BME280;6971;50.028;9.258;2023-02-14T14:55:45;101107.44;;;3.50;100.00
13800;BME280;6971;50.028;9.258;2023-02-14T15:00:51;101098.66;;;3.12;100.00
13800;BME280;6971;50.028;9.258;2023-02-14T15:06:14;101109.00;;;2.98;100.00
13800;BME280;6971;50.028;9.258;2023-02-14T15:11:20;101095.91;;;2.84;100.00
13800;BME280;6971;50.028;9.258;2023-02-14T15:16:47;101099.34;;;2.73;100.00
13800;BME280;6971;50.028;9.258;2023-02-14T15:21:48;101088.00;;;2.60;100.00
13800;BME280;6971;50.028;9.258;2023-02-14T15:26:49;101092.34;;;2.60;100.00
13800;BME280;6971;50.028;9.258;2023-02-14T15:31:51;101089.72;;;2.55;100.00
13800;BME280;6971;50.028;9.258;2023-02-14T15:36:53;101094.91;;;2.54;100.00
13800;BME280;6971;50.028;9.258;2023-02-14T15:41:56;101096.56;;;2.42;100.00
13800;BME280;6971;50.028;9.258;2023-02-14T15:47:02;101091.13;;;2.09;100.00
13800;BME280;6971;50.028;9.258;2023-02-14T15:52:20;101089.44;;;2.12;100.00
13800;BME280;6971;50.028;9.258;2023-02-14T15:57:25;101088.28;;;1.78;100.00
13800;BME280;6971;50.028;9.258;2023-02-14T16:02:34;101086.75;;;2.04;100.00
13800;BME280;6971;50.028;9.258;2023-02-14T16:07:36;101087.59;;;1.98;100.00
13800;BME280;6971;50.028;9.258;2023-02-14T16:12:40;101084.00;;;1.87;100.00
13800;BME280;6971;50.028;9.258;2023-02-14T16:17:43;101087.53;;;1.92;100.00
13800;BME280;6971;50.028;9.258;2023-02-14T16:22:44;101087.44;;;1.81;100.00
13800;BME280;6971;50.028;9.258;2023-02-14T16:27:44;101091.69;;;1.73;100.00
13800;BME280;6971;50.028;9.258;2023-02-14T16:32:49;101090.56;;;1.47;100.00
13800;BME280;6971;50.028;9.258;2023-02-14T16:37:50;101094.13;;;1.55;100.00
13800;BME280;6971;50.028;9.258;2023-02-14T16:42:51;101095.75;;;1.42;100.00
13800;BME280;6971;50.028;9.258;2023-02-14T16:47:52;101097.56;;;1.53;100.00
13800;BME280;6971;50.028;9.258;2023-02-14T16:52:52;101097.53;;;1.47;100.00
13800;BME280;6971;50.028;9.258;2023-02-14T16:57:55;101094.06;;;1.48;100.00
13800;BME280;6971;50.028;9.258;2023-02-14T17:02:58;101096.59;;;1.40;100.00
13800;BME280;6971;50.028;9.258;2023-02-14T17:08:12;101098.25;;;1.36;100.00
13800;BME280;6971;50.028;9.258;2023-02-14T17:13:17;101097.38;;;1.37;100.00
13800;BME280;6971;50.028;9.258;2023-02-14T17:18:20;101100.00;;;1.37;100.00
13800;BME280;6971;50.028;9.258;2023-02-14T17:23:22;101105.06;;;1.26;100.00
13800;BME280;6971;50.028;9.258;2023-02-14T17:28:23;101102.50;;;1.28;100.00
13800;BME280;6971;50.028;9.258;2023-02-14T17:33:27;101110.28;;;1.25;100.00
13800;BME280;6971;50.028;9.258;2023-02-14T17:38:29;101098.94;;;1.20;100.00
13800;BME280;6971;50.028;9.258;2023-02-14T17:43:30;101105.00;;;1.19;100.00
13800;BME280;6971;50.028;9.258;2023-02-14T17:48:30;101104.84;;;1.08;100.00
13800;BME280;6971;50.028;9.258;2023-02-14T17:53:31;101104.91;;;1.11;100.00
13800;BME280;6971;50.028;9.258;2023-02-14T17:58:33;101110.88;;;1.05;100.00
13800;BME280;6971;50.028;9.258;2023-02-14T18:03:34;101102.28;;;1.09;100.00
13800;BME280;6971;50.028;9.258;2023-02-14T18:08:37;101104.00;;;1.07;100.00
13800;BME280;6971;50.028;9.258;2023-02-14T18:13:38;101098.72;;;1.01;100.00
13800;BME280;6971;50.028;9.258;2023-02-14T18:18:38;101099.69;;;1.09;100.00
13800;BME280;6971;50.028;9.258;2023-02-14T18:23:39;101099.63;;;1.06;100.00
13800;BME280;6971;50.028;9.258;2023-02-14T18:28:40;101096.91;;;0.95;100.00
13800;BME280;6971;50.028;9.258;2023-02-14T18:33:41;101082.84;;;0.76;100.00
13800;BME280;6971;50.028;9.258;2023-02-14T18:38:43;101083.91;;;0.92;100.00
13800;BME280;6971;50.028;9.258;2023-02-14T18:43:44;101081.28;;;0.89;100.00
13800;BME280;6971;50.028;9.258;2023-02-14T18:48:45;101079.53;;;0.88;100.00
13800;BME280;6971;50.028;9.258;2023-02-14T18:53:46;101073.47;;;0.87;100.00
13800;BME280;6971;50.028;9.258;2023-02-14T18:58:48;101066.47;;;0.83;100.00
13800;BME280;6971;50.028;9.258;2023-02-14T19:03:51;101051.59;;;0.67;100.00
13800;BME280;6971;50.028;9.258;2023-02-14T19:08:54;101042.97;;;0.69;100.00
13800;BME280;6971;50.028;9.258;2023-02-14T19:13:55;101049.94;;;0.75;100.00
13800;BME280;6971;50.028;9.258;2023-02-14T19:18:56;101031.75;;;0.75;100.00
13800;BME280;6971;50.028;9.258;2023-02-14T19:23:59;101028.19;;;0.63;100.00
13800;BME280;6971;50.028;9.258;2023-02-14T19:29:02;101030.81;;;0.65;100.00
13800;BME280;6971;50.028;9.258;2023-02-14T19:34:04;101022.06;;;0.58;100.00
13800;BME280;6971;50.028;9.258;2023-02-14T19:39:05;101021.88;;;0.44;100.00
13800;BME280;6971;50.028;9.258;2023-02-14T19:44:06;101011.47;;;0.43;100.00
13800;BME280;6971;50.028;9.258;2023-02-14T19:49:13;101007.25;;;0.51;100.00
13800;BME280;6971;50.028;9.258;2023-02-14T19:54:14;101000.13;;;0.34;100.00
13800;BME280;6971;50.028;9.258;2023-02-14T19:59:15;100995.88;;;0.38;100.00
13800;BME280;6971;50.028;9.258;2023-02-14T20:04:21;101001.97;;;0.42;100.00
13800;BME280;6971;50.028;9.258;2023-02-14T20:09:22;100991.47;;;0.35;100.00
13800;BME280;6971;50.028;9.258;2023-02-14T20:14:25;100996.66;;;0.35;100.00
13800;BME280;6971;50.028;9.258;2023-02-14T20:19:27;101001.91;;;0.38;100.00
13800;BME280;6971;50.028;9.258;2023-02-14T20:24:30;100998.34;;;0.30;100.00
13800;BME280;6971;50.028;9.258;2023-02-14T20:29:31;100995.78;;;0.33;100.00
13800;BME280;6971;50.028;9.258;2023-02-14T20:34:32;101000.16;;;0.37;100.00
13800;BME280;6971;50.028;9.258;2023-02-14T20:39:33;100982.91;;;0.41;100.00
13800;BME280;6971;50.028;9.258;2023-02-14T20:44:34;100984.50;;;0.28;100.00
13800;BME280;6971;50.028;9.258;2023-02-14T20:49:34;100995.88;;;0.38;100.00
13800;BME280;6971;50.028;9.258;2023-02-14T20:54:36;100992.28;;;0.30;100.00
13800;BME280;6971;50.028;9.258;2023-02-14T20:59:37;100988.91;;;0.37;100.00
13800;BME280;6971;50.028;9.258;2023-02-14T21:04:38;100984.69;;;0.44;100.00
13800;BME280;6971;50.028;9.258;2023-02-14T21:09:38;100979.47;;;0.44;100.00
13800;BME280;6971;50.028;9.258;2023-02-14T21:14:38;100975.16;;;0.43;100.00
13800;BME280;6971;50.028;9.258;2023-02-14T21:19:39;100975.28;;;0.52;100.00
13800;BME280;6971;50.028;9.258;2023-02-14T21:24:39;100963.81;;;0.34;100.00
13800;BME280;6971;50.028;9.258;2023-02-14T21:29:39;100953.28;;;0.20;100.00
13800;BME280;6971;50.028;9.258;2023-02-14T21:34:42;100942.94;;;0.25;100.00
13800;BME280;6971;50.028;9.258;2023-02-14T21:39:43;100944.78;;;0.35;100.00
13800;BME280;6971;50.028;9.258;2023-02-14T21:44:44;100937.00;;;0.32;100.00
13800;BME280;6971;50.028;9.258;2023-02-14T21:50:03;100929.28;;;0.38;100.00
13800;BME280;6971;50.028;9.258;2023-02-14T21:55:22;100934.25;;;0.20;100.00
13800;BME280;6971;50.028;9.258;2023-02-14T22:00:22;100938.63;;;0.25;100.00
13800;BME280;6971;50.028;9.258;2023-02-14T22:05:23;100924.81;;;0.27;100.00
13800;BME280;6971;50.028;9.258;2023-02-14T22:10:23;100922.31;;;0.34;100.00
13800;BME280;6971;50.028;9.258;2023-02-14T22:15:24;100916.94;;;0.19;100.00
13800;BME280;6971;50.028;9.258;2023-02-14T22:20:24;100927.19;;;0.08;100.00
13800;BME280;6971;50.028;9.258;2023-02-14T22:25:24;100934.06;;;0.07;100.00
13800;BME280;6971;50.028;9.258;2023-02-14T22:30:25;100927.34;;;0.20;100.00
13800;BME280;6971;50.028;9.258;2023-02-14T22:35:25;100927.34;;;0.23;100.00
13800;BME280;6971;50.028;9.258;2023-02-14T22:40:26;100930.72;;;0.15;100.00
13800;BME280;6971;50.028;9.258;2023-02-14T22:45:26;100923.78;;;0.14;100.00
13800;BME280;6971;50.028;9.258;2023-02-14T22:50:26;100923.88;;;0.20;100.00
13800;BME280;6971;50.028;9.258;2023-02-14T22:55:27;100912.59;;;0.19;100.00
13800;BME280;6971;50.028;9.258;2023-02-14T23:00:27;100917.88;;;0.24;100.00
13800;BME280;6971;50.028;9.258;2023-02-14T23:05:28;100912.72;;;0.27;100.00
13800;BME280;6971;50.028;9.258;2023-02-14T23:10:28;100915.22;;;0.21;100.00
13800;BME280;6971;50.028;9.258;2023-02-14T23:15:28;100908.41;;;0.29;100.00
13800;BME280;6971;50.028;9.258;2023-02-14T23:20:51;100912.69;;;0.24;100.00
13800;BME280;6971;50.028;9.258;2023-02-14T23:26:10;100908.34;;;0.23;100.00
13800;BME280;6971;50.028;9.258;2023-02-14T23:31:10;100913.59;;;0.29;100.00
13800;BME280;6971;50.028;9.258;2023-02-14T23:36:11;100908.38;;;0.26;100.00
13800;BME280;6971;50.028;9.258;2023-02-14T23:41:11;100907.56;;;0.32;100.00
13800;BME280;6971;50.028;9.258;2023-02-14T23:46:30;100907.53;;;0.25;100.00
13800;BME280;6971;50.028;9.258;2023-02-14T23:51:34;100908.41;;;0.29;100.00
13800;BME280;6971;50.028;9.258;2023-02-14T23:56:35;100907.44;;;0.21;100.00
